createdAt,value
2016-06-25T00:00:23.436Z,18.7
2016-06-25T00:01:23.391Z,18.64
2016-06-25T00:02:23.384Z,18.79
2016-06-25T00:03:23.405Z,18.64
2016-06-25T00:04:23.446Z,18.67
2016-06-25T00:05:23.448Z,18.64
2016-06-25T00:06:23.438Z,18.76
2016-06-25T00:07:23.402Z,18.82
2016-06-25T00:08:23.448Z,18.73
2016-06-25T00:09:23.458Z,18.77
2016-06-25T00:10:23.421Z,18.77
2016-06-25T00:11:23.433Z,18.84
2016-06-25T00:12:23.390Z,18.83
2016-06-25T00:13:23.417Z,18.84
2016-06-25T00:14:23.384Z,18.83
2016-06-25T00:15:23.408Z,18.87
2016-06-25T00:16:23.402Z,18.91
2016-06-25T00:17:23.474Z,19.05
2016-06-25T00:18:23.434Z,19.02
2016-06-25T00:19:23.420Z,19.02
2016-06-25T00:20:23.458Z,19.14
2016-06-25T00:21:23.601Z,18.99
2016-06-25T00:22:23.438Z,19.02
2016-06-25T00:23:23.442Z,19.18
2016-06-25T00:24:23.418Z,19.11
2016-06-25T00:25:23.460Z,19.14
2016-06-25T00:26:23.450Z,19.29
2016-06-25T00:27:23.436Z,19.23
2016-06-25T00:28:23.420Z,19.35
2016-06-25T00:29:23.417Z,19.18
2016-06-25T00:30:23.422Z,19.17
2016-06-25T00:31:23.425Z,19.24
2016-06-25T00:32:23.437Z,19.32
2016-06-25T00:33:23.443Z,19.31
2016-06-25T00:34:23.436Z,19.32
2016-06-25T00:35:23.430Z,19.39
2016-06-25T00:36:23.497Z,19.33
2016-06-25T00:37:23.460Z,19.39
2016-06-25T00:38:23.475Z,19.4
2016-06-25T00:39:23.501Z,19.29
2016-06-25T00:40:23.492Z,19.35
2016-06-25T00:41:23.481Z,19.43
2016-06-25T00:42:23.461Z,19.31
2016-06-25T00:43:23.506Z,19.42
2016-06-25T00:44:23.444Z,19.32
2016-06-25T00:45:23.471Z,19.46
2016-06-25T00:46:23.467Z,19.43
2016-06-25T00:47:23.447Z,19.48
2016-06-25T00:48:23.454Z,19.47
2016-06-25T00:49:23.449Z,19.38
2016-06-25T00:50:23.454Z,19.29
2016-06-25T00:51:23.447Z,19.28
2016-06-25T00:52:23.501Z,19.35
2016-06-25T00:53:23.485Z,19.33
2016-06-25T00:54:23.501Z,19.25
2016-06-25T00:55:23.443Z,19.17
2016-06-25T00:56:23.452Z,19.24
2016-06-25T00:57:23.463Z,19.21
2016-06-25T00:58:23.462Z,19.15
2016-06-25T00:59:23.480Z,19.14
2016-06-25T01:00:24.441Z,19.18
2016-06-25T01:01:23.471Z,19.17
2016-06-25T01:02:23.504Z,19.14
2016-06-25T01:03:23.524Z,19.15
2016-06-25T01:04:23.485Z,19.13
2016-06-25T01:05:23.501Z,19.13
2016-06-25T01:06:23.500Z,19.11
2016-06-25T01:07:23.462Z,19.11
2016-06-25T01:08:23.463Z,19.02
2016-06-25T01:09:23.486Z,18.99
2016-06-25T01:10:23.487Z,18.95
2016-06-25T01:11:23.522Z,18.95
2016-06-25T01:12:23.505Z,18.87
2016-06-25T01:13:23.513Z,18.92
2016-06-25T01:14:23.487Z,18.9
2016-06-25T01:15:23.509Z,18.8
2016-06-25T01:16:23.535Z,18.74
2016-06-25T01:17:23.506Z,18.84
2016-06-25T01:18:23.489Z,18.79
2016-06-25T01:19:23.469Z,18.76
2016-06-25T01:20:23.442Z,18.65
2016-06-25T01:21:23.487Z,18.76
2016-06-25T01:22:23.474Z,18.72
2016-06-25T01:23:23.475Z,18.74
2016-06-25T01:24:23.492Z,18.73
2016-06-25T01:25:23.493Z,18.62
2016-06-25T01:26:23.517Z,18.73
2016-06-25T01:27:23.509Z,18.67
2016-06-25T01:28:23.495Z,18.74
2016-06-25T01:29:23.465Z,18.67
2016-06-25T01:30:23.506Z,18.62
2016-06-25T01:31:23.481Z,18.68
2016-06-25T01:32:23.500Z,18.74
2016-06-25T01:33:23.491Z,18.65
2016-06-25T01:34:23.471Z,18.65
2016-06-25T01:35:23.493Z,18.73
2016-06-25T01:36:23.519Z,18.61
2016-06-25T01:37:23.468Z,18.57
2016-06-25T01:38:23.513Z,18.64
2016-06-25T01:39:23.502Z,18.74
2016-06-25T01:40:23.493Z,18.59
2016-06-25T01:41:23.488Z,18.49
2016-06-25T01:42:23.582Z,18.73
2016-06-25T01:43:23.590Z,18.73
2016-06-25T01:44:23.559Z,18.58
2016-06-25T01:45:23.527Z,18.59
2016-06-25T01:46:23.510Z,18.5
2016-06-25T01:47:23.785Z,18.52
2016-06-25T01:48:23.496Z,18.67
2016-06-25T01:49:23.542Z,18.49
2016-06-25T01:50:23.498Z,18.68
2016-06-25T01:51:23.545Z,18.59
2016-06-25T01:52:23.510Z,18.62
2016-06-25T01:53:23.497Z,18.5
2016-06-25T01:54:23.517Z,18.65
2016-06-25T01:55:23.495Z,18.61
2016-06-25T01:56:23.511Z,18.61
2016-06-25T01:57:23.546Z,18.47
2016-06-25T01:58:23.571Z,18.58
2016-06-25T01:59:23.528Z,18.55
2016-06-25T02:00:23.503Z,18.43
2016-06-25T02:01:23.557Z,18.55
2016-06-25T02:02:23.512Z,18.59
2016-06-25T02:03:23.515Z,18.49
2016-06-25T02:04:23.558Z,18.5
2016-06-25T02:05:23.527Z,18.58
2016-06-25T02:06:23.585Z,18.5
2016-06-25T02:07:23.564Z,18.58
2016-06-25T02:08:23.531Z,18.44
2016-06-25T02:09:23.576Z,18.57
2016-06-25T02:10:23.520Z,18.52
2016-06-25T02:11:23.532Z,18.55
2016-06-25T02:12:23.560Z,18.65
2016-06-25T02:13:23.527Z,18.49
2016-06-25T02:14:23.534Z,18.59
2016-06-25T02:15:23.527Z,18.68
2016-06-25T02:16:23.544Z,18.61
2016-06-25T02:17:23.526Z,18.68
2016-06-25T02:18:23.511Z,18.54
2016-06-25T02:19:23.513Z,18.59
2016-06-25T02:20:23.541Z,18.59
2016-06-25T02:21:23.568Z,18.7
2016-06-25T02:22:23.558Z,18.62
2016-06-25T02:23:23.538Z,18.64
2016-06-25T02:24:23.586Z,18.64
2016-06-25T02:25:23.534Z,18.67
2016-06-25T02:26:23.538Z,18.64
2016-06-25T02:27:23.534Z,18.67
2016-06-25T02:28:23.555Z,18.65
2016-06-25T02:29:23.539Z,18.65
2016-06-25T02:30:23.549Z,18.83
2016-06-25T02:31:23.531Z,18.68
2016-06-25T02:32:23.551Z,18.79
2016-06-25T02:33:23.527Z,18.74
2016-06-25T02:34:23.549Z,18.72
2016-06-25T02:35:23.534Z,18.73
2016-06-25T02:36:23.579Z,18.74
2016-06-25T02:37:23.536Z,18.65
2016-06-25T02:38:23.558Z,18.76
2016-06-25T02:39:23.546Z,18.7
2016-06-25T02:40:23.561Z,18.62
2016-06-25T02:41:23.552Z,18.77
2016-06-25T02:42:24.175Z,18.72
2016-06-25T02:43:24.035Z,18.84
2016-06-25T02:44:23.951Z,18.64
2016-06-25T02:45:23.595Z,18.72
2016-06-25T02:46:23.568Z,18.76
2016-06-25T02:47:23.546Z,18.73
2016-06-25T02:48:23.555Z,18.72
2016-06-25T02:49:23.622Z,18.74
2016-06-25T02:50:23.619Z,18.77
2016-06-25T02:51:23.578Z,18.74
2016-06-25T02:52:23.575Z,18.74
2016-06-25T02:53:23.564Z,18.74
2016-06-25T02:54:23.570Z,18.79
2016-06-25T02:55:23.564Z,18.73
2016-06-25T02:56:23.581Z,18.62
2016-06-25T02:57:23.576Z,18.74
2016-06-25T02:58:23.577Z,18.82
2016-06-25T02:59:23.610Z,18.74
2016-06-25T03:00:23.577Z,18.87
2016-06-25T03:01:23.566Z,18.87
2016-06-25T03:02:23.583Z,18.83
2016-06-25T03:03:23.575Z,18.74
2016-06-25T03:04:23.541Z,18.76
2016-06-25T03:05:23.586Z,18.76
2016-06-25T03:06:23.577Z,18.72
2016-06-25T03:07:23.554Z,18.8
2016-06-25T03:08:23.564Z,18.8
2016-06-25T03:09:23.552Z,18.92
2016-06-25T03:10:23.588Z,18.7
2016-06-25T03:11:23.594Z,18.77
2016-06-25T03:12:23.584Z,18.74
2016-06-25T03:13:23.572Z,18.82
2016-06-25T03:14:23.581Z,18.82
2016-06-25T03:15:23.596Z,18.84
2016-06-25T03:16:23.577Z,18.86
2016-06-25T03:17:23.695Z,18.74
2016-06-25T03:18:23.593Z,18.8
2016-06-25T03:19:23.814Z,18.82
2016-06-25T03:20:23.777Z,18.84
2016-06-25T03:21:23.971Z,18.8
2016-06-25T03:22:23.767Z,18.87
2016-06-25T03:23:23.591Z,18.91
2016-06-25T03:24:23.591Z,18.91
2016-06-25T03:25:23.607Z,18.82
2016-06-25T03:26:23.578Z,18.83
2016-06-25T03:27:23.586Z,18.9
2016-06-25T03:28:23.577Z,18.98
2016-06-25T03:29:23.585Z,18.86
2016-06-25T03:30:23.611Z,18.94
2016-06-25T03:31:23.611Z,18.84
2016-06-25T03:32:23.599Z,18.79
2016-06-25T03:33:23.607Z,18.87
2016-06-25T03:34:23.649Z,18.87
2016-06-25T03:35:23.659Z,18.9
2016-06-25T03:36:23.597Z,18.94
2016-06-25T03:37:23.735Z,18.83
2016-06-25T03:38:23.661Z,18.95
2016-06-25T03:39:23.636Z,18.95
2016-06-25T03:40:23.583Z,18.94
2016-06-25T03:41:23.625Z,18.95
2016-06-25T03:42:23.648Z,18.94
2016-06-25T03:43:23.611Z,18.87
2016-06-25T03:44:23.597Z,18.98
2016-06-25T03:45:23.639Z,19.02
2016-06-25T03:46:23.591Z,18.99
2016-06-25T03:47:23.587Z,18.97
2016-06-25T03:48:23.859Z,18.99
2016-06-25T03:49:23.606Z,18.94
2016-06-25T03:50:23.609Z,19.02
2016-06-25T03:51:23.650Z,19.01
2016-06-25T03:52:23.622Z,18.95
2016-06-25T03:53:23.612Z,19.06
2016-06-25T03:54:23.634Z,19.02
2016-06-25T03:55:23.603Z,18.99
2016-06-25T03:56:23.604Z,19.06
2016-06-25T03:57:23.659Z,19.1
2016-06-25T03:58:23.605Z,19.15
2016-06-25T03:59:23.637Z,19.1
2016-06-25T04:00:23.624Z,19.01
2016-06-25T04:01:23.629Z,19.1
2016-06-25T04:02:23.614Z,19.14
2016-06-25T04:03:23.634Z,19.1
2016-06-25T04:04:23.633Z,19.13
2016-06-25T04:05:23.621Z,19.06
2016-06-25T04:06:23.642Z,19.15
2016-06-25T04:07:23.608Z,19.05
2016-06-25T04:08:23.624Z,19.29
2016-06-25T04:09:23.625Z,19.11
2016-06-25T04:10:23.625Z,19.17
2016-06-25T04:11:23.618Z,19.2
2016-06-25T04:12:23.612Z,19.18
2016-06-25T04:13:23.672Z,19.23
2016-06-25T04:14:23.656Z,19.25
2016-06-25T04:15:23.617Z,19.2
2016-06-25T04:16:23.651Z,19.36
2016-06-25T04:17:23.631Z,19.28
2016-06-25T04:18:23.642Z,19.32
2016-06-25T04:19:23.629Z,19.33
2016-06-25T04:20:23.667Z,19.29
2016-06-25T04:21:23.648Z,19.36
2016-06-25T04:22:23.653Z,19.35
2016-06-25T04:23:23.657Z,19.35
2016-06-25T04:24:23.659Z,19.33
2016-06-25T04:25:23.646Z,19.35
2016-06-25T04:26:23.654Z,19.29
2016-06-25T04:27:23.658Z,19.33
2016-06-25T04:28:23.679Z,19.46
2016-06-25T04:29:23.687Z,19.31
2016-06-25T04:30:23.709Z,19.47
2016-06-25T04:31:23.638Z,19.46
2016-06-25T04:32:23.690Z,19.32
2016-06-25T04:33:23.647Z,19.42
2016-06-25T04:34:23.681Z,19.31
2016-06-25T04:35:23.624Z,19.43
2016-06-25T04:36:23.638Z,19.47
2016-06-25T04:37:23.638Z,19.48
2016-06-25T04:38:23.679Z,19.35
2016-06-25T04:39:23.669Z,19.4
2016-06-25T04:40:23.661Z,19.32
2016-06-25T04:41:23.658Z,19.39
2016-06-25T04:42:23.704Z,19.43
2016-06-25T04:43:23.689Z,19.43
2016-06-25T04:44:23.686Z,19.48
2016-06-25T04:45:23.693Z,19.5
2016-06-25T04:46:23.736Z,19.5
2016-06-25T04:47:23.710Z,19.33
2016-06-25T04:48:23.685Z,19.65
2016-06-25T04:49:23.672Z,19.5
2016-06-25T04:50:23.626Z,19.36
2016-06-25T04:51:23.690Z,19.55
2016-06-25T04:52:23.655Z,19.53
2016-06-25T04:53:23.651Z,19.58
2016-06-25T04:54:23.641Z,19.53
2016-06-25T04:55:23.690Z,19.63
2016-06-25T04:56:23.671Z,19.42
2016-06-25T04:57:23.691Z,19.42
2016-06-25T04:58:23.713Z,19.38
2016-06-25T04:59:24.679Z,19.53
2016-06-25T05:00:23.750Z,19.35
2016-06-25T05:01:23.722Z,19.5
2016-06-25T05:02:23.723Z,19.51
2016-06-25T05:03:23.698Z,19.58
2016-06-25T05:04:23.688Z,19.43
2016-06-25T05:05:23.669Z,19.6
2016-06-25T05:06:23.716Z,19.4
2016-06-25T05:07:23.756Z,19.57
2016-06-25T05:08:23.671Z,19.55
2016-06-25T05:09:23.722Z,19.46
2016-06-25T05:10:23.675Z,19.53
2016-06-25T05:11:23.674Z,19.46
2016-06-25T05:12:23.734Z,19.51
2016-06-25T05:13:23.725Z,19.54
2016-06-25T05:14:23.671Z,19.58
2016-06-25T05:15:23.693Z,19.55
2016-06-25T05:16:23.667Z,19.65
2016-06-25T05:17:23.753Z,19.58
2016-06-25T05:18:23.696Z,19.68
2016-06-25T05:19:23.705Z,19.53
2016-06-25T05:20:23.703Z,19.57
2016-06-25T05:21:23.707Z,19.54
2016-06-25T05:22:23.700Z,19.6
2016-06-25T05:23:23.680Z,19.63
2016-06-25T05:24:23.701Z,19.72
2016-06-25T05:25:23.728Z,19.54
2016-06-25T05:26:23.707Z,19.61
2016-06-25T05:27:23.690Z,19.57
2016-06-25T05:28:23.738Z,19.65
2016-06-25T05:29:23.690Z,19.57
2016-06-25T05:30:23.768Z,19.61
2016-06-25T05:31:23.685Z,19.61
2016-06-25T05:32:23.714Z,19.57
2016-06-25T05:33:23.720Z,19.68
2016-06-25T05:34:23.738Z,19.54
2016-06-25T05:35:23.736Z,19.55
2016-06-25T05:36:23.800Z,19.58
2016-06-25T05:37:23.692Z,19.6
2016-06-25T05:38:23.698Z,19.57
2016-06-25T05:39:23.769Z,19.7
2016-06-25T05:40:23.723Z,19.61
2016-06-25T05:41:23.722Z,19.5
2016-06-25T05:42:23.757Z,19.55
2016-06-25T05:43:24.026Z,19.63
2016-06-25T05:44:23.791Z,19.55
2016-06-25T05:45:23.705Z,19.54
2016-06-25T05:46:23.726Z,19.51
2016-06-25T05:47:24.027Z,19.6
2016-06-25T05:48:24.277Z,19.6
2016-06-25T05:49:23.722Z,19.47
2016-06-25T05:50:24.693Z,19.46
2016-06-25T05:51:23.722Z,19.58
2016-06-25T05:52:23.779Z,19.61
2016-06-25T05:53:23.789Z,19.51
2016-06-25T05:54:23.750Z,19.6
2016-06-25T05:55:23.729Z,19.43
2016-06-25T05:56:23.797Z,19.5
2016-06-25T05:57:23.725Z,19.53
2016-06-25T05:58:23.783Z,19.55
2016-06-25T05:59:23.739Z,19.53
2016-06-25T06:00:23.746Z,19.54
2016-06-25T06:01:23.739Z,19.63
2016-06-25T06:02:23.738Z,19.47
2016-06-25T06:03:23.764Z,19.51
2016-06-25T06:04:23.744Z,19.53
2016-06-25T06:05:23.752Z,19.55
2016-06-25T06:06:24.004Z,19.48
2016-06-25T06:07:23.764Z,19.5
2016-06-25T06:08:23.764Z,19.58
2016-06-25T06:09:23.793Z,19.48
2016-06-25T06:10:23.736Z,19.55
2016-06-25T06:11:23.759Z,19.51
2016-06-25T06:12:23.750Z,19.43
2016-06-25T06:13:23.734Z,19.69
2016-06-25T06:14:23.773Z,19.55
2016-06-25T06:15:23.731Z,19.55
2016-06-25T06:16:23.767Z,19.43
2016-06-25T06:17:23.745Z,19.58
2016-06-25T06:18:23.752Z,19.43
2016-06-25T06:19:23.749Z,19.61
2016-06-25T06:20:23.765Z,19.54
2016-06-25T06:21:23.764Z,19.54
2016-06-25T06:22:23.755Z,19.65
2016-06-25T06:23:23.736Z,19.54
2016-06-25T06:24:23.713Z,19.55
2016-06-25T06:25:23.783Z,19.54
2016-06-25T06:26:23.730Z,19.51
2016-06-25T06:27:23.752Z,19.65
2016-06-25T06:28:23.768Z,19.69
2016-06-25T06:29:23.783Z,19.51
2016-06-25T06:30:23.786Z,19.6
2016-06-25T06:31:24.090Z,19.55
2016-06-25T06:32:23.773Z,19.63
2016-06-25T06:33:23.747Z,19.63
2016-06-25T06:34:23.775Z,19.58
2016-06-25T06:35:23.763Z,19.57
2016-06-25T06:36:23.756Z,19.54
2016-06-25T06:37:23.767Z,19.6
2016-06-25T06:38:23.767Z,19.53
2016-06-25T06:39:23.749Z,19.6
2016-06-25T06:40:23.766Z,19.6
2016-06-25T06:41:23.774Z,19.57
2016-06-25T06:42:23.798Z,19.6
2016-06-25T06:43:23.776Z,19.58
2016-06-25T06:44:23.775Z,19.54
2016-06-25T06:45:23.831Z,19.51
2016-06-25T06:46:23.825Z,19.55
2016-06-25T06:47:23.788Z,19.57
2016-06-25T06:48:23.864Z,19.55
2016-06-25T06:49:23.814Z,19.58
2016-06-25T06:50:23.799Z,19.48
2016-06-25T06:51:23.890Z,19.61
2016-06-25T06:52:23.780Z,19.35
2016-06-25T06:53:23.767Z,19.55
2016-06-25T06:54:23.820Z,19.54
2016-06-25T06:55:23.771Z,19.55
2016-06-25T06:56:23.817Z,19.55
2016-06-25T06:57:23.847Z,19.57
2016-06-25T06:58:23.857Z,19.55
2016-06-25T06:59:23.830Z,19.51
2016-06-25T07:00:23.811Z,19.5
2016-06-25T07:01:23.799Z,19.57
2016-06-25T07:02:23.787Z,19.53
2016-06-25T07:03:23.771Z,19.5
2016-06-25T07:04:23.804Z,19.43
2016-06-25T07:05:23.814Z,19.47
2016-06-25T07:06:23.829Z,19.38
2016-06-25T07:07:23.829Z,19.39
2016-06-25T07:08:23.815Z,19.46
2016-06-25T07:09:23.849Z,19.4
2016-06-25T07:10:23.829Z,19.51
2016-06-25T07:11:23.830Z,19.38
2016-06-25T07:12:23.799Z,19.46
2016-06-25T07:13:23.825Z,19.42
2016-06-25T07:14:23.797Z,19.46
2016-06-25T07:15:23.826Z,19.33
2016-06-25T07:16:23.818Z,19.46
2016-06-25T07:17:23.817Z,19.39
2016-06-25T07:18:23.831Z,19.36
2016-06-25T07:19:23.811Z,19.42
2016-06-25T07:20:23.839Z,19.39
2016-06-25T07:21:23.829Z,19.43
2016-06-25T07:22:23.821Z,19.32
2016-06-25T07:23:23.800Z,19.36
2016-06-25T07:24:23.821Z,19.35
2016-06-25T07:25:23.842Z,19.38
2016-06-25T07:26:23.826Z,19.29
2016-06-25T07:27:23.852Z,19.24
2016-06-25T07:28:23.825Z,19.21
2016-06-25T07:29:23.823Z,19.25
2016-06-25T07:30:24.566Z,19.23
2016-06-25T07:31:23.838Z,19.21
2016-06-25T07:32:23.816Z,19.15
2016-06-25T07:33:23.858Z,19.23
2016-06-25T07:34:23.782Z,19.18
2016-06-25T07:35:23.821Z,19.05
2016-06-25T07:36:23.874Z,19.1
2016-06-25T07:37:23.848Z,19.2
2016-06-25T07:38:23.840Z,19.13
2016-06-25T07:39:23.806Z,19.1
2016-06-25T07:40:23.870Z,19.13
2016-06-25T07:41:23.939Z,19.18
2016-06-25T07:42:23.978Z,19.11
2016-06-25T07:43:23.877Z,19.06
2016-06-25T07:44:23.819Z,19.15
2016-06-25T07:45:23.819Z,19.23
2016-06-25T07:46:23.805Z,19.2
2016-06-25T07:47:23.855Z,19.29
2016-06-25T07:48:23.854Z,19.17
2016-06-25T07:49:23.847Z,19.2
2016-06-25T07:50:24.554Z,19.36
2016-06-25T07:51:23.816Z,19.48
2016-06-25T07:52:23.864Z,19.43
2016-06-25T07:53:23.886Z,19.42
2016-06-25T07:54:23.934Z,19.38
2016-06-25T07:55:24.039Z,19.43
2016-06-25T07:56:23.801Z,19.51
2016-06-25T07:57:23.848Z,19.48
2016-06-25T07:58:23.899Z,19.5
2016-06-25T07:59:23.862Z,19.42
2016-06-25T08:00:23.859Z,19.53
2016-06-25T08:01:24.072Z,19.42
2016-06-25T08:02:24.209Z,19.57
2016-06-25T08:03:24.110Z,19.43
2016-06-25T08:04:23.852Z,19.46
2016-06-25T08:05:23.878Z,19.43
2016-06-25T08:06:23.862Z,19.43
2016-06-25T08:07:23.858Z,19.35
2016-06-25T08:08:23.867Z,19.46
2016-06-25T08:09:23.882Z,19.47
2016-06-25T08:10:23.867Z,19.38
2016-06-25T08:11:23.884Z,19.29
2016-06-25T08:12:23.881Z,19.39
2016-06-25T08:13:23.915Z,19.39
2016-06-25T08:14:23.876Z,19.38
2016-06-25T08:15:23.881Z,19.29
2016-06-25T08:16:23.864Z,19.29
2016-06-25T08:17:23.856Z,19.24
2016-06-25T08:18:23.860Z,19.24
2016-06-25T08:19:23.867Z,19.15
2016-06-25T08:20:23.868Z,19.14
2016-06-25T08:21:23.866Z,19.13
2016-06-25T08:22:23.854Z,19.1
2016-06-25T08:23:23.885Z,19.01
2016-06-25T08:24:23.908Z,19.01
2016-06-25T08:25:23.987Z,18.99
2016-06-25T08:26:23.938Z,18.94
2016-06-25T08:27:23.924Z,19.05
2016-06-25T08:28:23.886Z,18.99
2016-06-25T08:29:23.864Z,18.94
2016-06-25T08:30:23.867Z,18.9
2016-06-25T08:31:23.855Z,18.99
2016-06-25T08:32:23.918Z,18.83
2016-06-25T08:33:23.860Z,18.99
2016-06-25T08:34:23.877Z,18.91
2016-06-25T08:35:23.884Z,18.87
2016-06-25T08:36:23.850Z,18.82
2016-06-25T08:37:23.931Z,18.84
2016-06-25T08:38:23.927Z,18.9
2016-06-25T08:39:23.853Z,18.82
2016-06-25T08:40:23.888Z,18.91
2016-06-25T08:41:23.886Z,18.86
2016-06-25T08:42:23.883Z,18.77
2016-06-25T08:43:23.900Z,18.72
2016-06-25T08:44:23.883Z,18.76
2016-06-25T08:45:23.912Z,18.74
2016-06-25T08:46:23.925Z,18.82
2016-06-25T08:47:23.909Z,18.76
2016-06-25T08:48:23.905Z,18.74
2016-06-25T08:49:23.864Z,18.72
2016-06-25T08:50:23.873Z,18.7
2016-06-25T08:51:23.877Z,18.76
2016-06-25T08:52:23.938Z,18.67
2016-06-25T08:53:23.882Z,18.72
2016-06-25T08:54:23.890Z,18.84
2016-06-25T08:55:23.894Z,18.67
2016-06-25T08:56:23.883Z,18.74
2016-06-25T08:57:23.918Z,18.68
2016-06-25T08:58:23.926Z,18.77
2016-06-25T08:59:23.912Z,18.68
2016-06-25T09:00:23.911Z,18.77
2016-06-25T09:01:23.910Z,18.73
2016-06-25T09:02:23.881Z,18.76
2016-06-25T09:03:23.933Z,18.77
2016-06-25T09:04:23.893Z,18.7
2016-06-25T09:05:23.897Z,18.77
2016-06-25T09:06:23.911Z,18.8
2016-06-25T09:07:23.932Z,18.79
2016-06-25T09:08:23.899Z,18.86
2016-06-25T09:09:23.951Z,18.9
2016-06-25T09:10:23.896Z,18.82
2016-06-25T09:11:23.900Z,18.82
2016-06-25T09:12:24.252Z,18.84
2016-06-25T09:13:24.059Z,18.84
2016-06-25T09:14:23.934Z,18.84
2016-06-25T09:15:23.927Z,18.9
2016-06-25T09:16:23.885Z,18.82
2016-06-25T09:17:23.894Z,18.76
2016-06-25T09:18:23.912Z,18.74
2016-06-25T09:19:23.891Z,18.84
2016-06-25T09:20:23.889Z,18.7
2016-06-25T09:21:23.986Z,18.77
2016-06-25T09:22:24.013Z,18.74
2016-06-25T09:23:23.966Z,18.77
2016-06-25T09:24:23.943Z,18.74
2016-06-25T09:25:23.963Z,18.74
2016-06-25T09:26:23.958Z,18.73
2016-06-25T09:27:23.938Z,18.68
2016-06-25T09:28:23.909Z,18.77
2016-06-25T09:29:23.993Z,18.79
2016-06-25T09:30:23.950Z,18.77
2016-06-25T09:31:23.924Z,18.76
2016-06-25T09:32:24.170Z,18.79
2016-06-25T09:33:23.924Z,18.68
2016-06-25T09:34:23.960Z,18.76
2016-06-25T09:35:23.968Z,18.7
2016-06-25T09:36:23.932Z,18.67
2016-06-25T09:37:24.001Z,18.7
2016-06-25T09:38:23.990Z,18.76
2016-06-25T09:39:23.968Z,18.82
2016-06-25T09:40:23.941Z,18.77
2016-06-25T09:41:23.927Z,18.74
2016-06-25T09:42:23.949Z,18.82
2016-06-25T09:43:23.955Z,18.83
2016-06-25T09:44:24.059Z,18.92
2016-06-25T09:45:25.205Z,18.83
2016-06-25T09:46:23.935Z,18.92
2016-06-25T09:47:24.113Z,19.05
2016-06-25T09:48:24.005Z,19.08
2016-06-25T09:49:23.936Z,18.99
2016-06-25T09:50:23.926Z,19.14
2016-06-25T09:51:23.943Z,19.11
2016-06-25T09:52:23.942Z,19.11
2016-06-25T09:53:23.940Z,19.17
2016-06-25T09:54:23.949Z,19.18
2016-06-25T09:55:23.963Z,19.24
2016-06-25T09:56:23.958Z,19.2
2016-06-25T09:57:23.986Z,19.23
2016-06-25T09:58:23.966Z,19.35
2016-06-25T09:59:23.953Z,19.39
2016-06-25T10:00:23.955Z,19.46
2016-06-25T10:01:23.953Z,19.42
2016-06-25T10:02:23.961Z,19.42
2016-06-25T10:03:23.975Z,19.39
2016-06-25T10:04:23.995Z,19.4
2016-06-25T10:05:23.981Z,19.42
2016-06-25T10:06:23.953Z,19.46
2016-06-25T10:07:23.991Z,19.4
2016-06-25T10:08:23.952Z,19.36
2016-06-25T10:09:23.973Z,19.35
2016-06-25T10:10:23.947Z,19.35
2016-06-25T10:11:23.969Z,19.38
2016-06-25T10:12:23.965Z,19.29
2016-06-25T10:13:23.991Z,19.33
2016-06-25T10:14:23.967Z,19.33
2016-06-25T10:15:23.959Z,19.32
2016-06-25T10:16:24.629Z,19.32
2016-06-25T10:17:24.011Z,19.39
2016-06-25T10:18:23.971Z,19.43
2016-06-25T10:19:23.975Z,19.36
2016-06-25T10:20:23.981Z,19.4
2016-06-25T10:21:23.975Z,19.47
2016-06-25T10:22:23.989Z,19.39
2016-06-25T10:23:24.027Z,19.39
2016-06-25T10:24:23.986Z,19.38
2016-06-25T10:25:24.068Z,19.42
2016-06-25T10:26:24.118Z,19.36
2016-06-25T10:27:23.995Z,19.29
2016-06-25T10:28:23.987Z,19.2
2016-06-25T10:29:24.237Z,19.31
2016-06-25T10:30:24.024Z,19.15
2016-06-25T10:31:23.981Z,19.28
2016-06-25T10:32:24.014Z,19.23
2016-06-25T10:33:24.503Z,19.17
2016-06-25T10:34:24.017Z,19.25
2016-06-25T10:35:25.082Z,19.14
2016-06-25T10:36:24.033Z,19.18
2016-06-25T10:37:24.043Z,19.02
2016-06-25T10:38:23.966Z,19.15
2016-06-25T10:39:24.027Z,19.14
2016-06-25T10:40:24.003Z,19.08
2016-06-25T10:41:24.040Z,19.02
2016-06-25T10:42:24.009Z,19.05
2016-06-25T10:43:24.026Z,19.05
2016-06-25T10:44:24.054Z,18.95
2016-06-25T10:45:24.081Z,18.91
2016-06-25T10:46:24.019Z,18.91
2016-06-25T10:47:24.054Z,18.98
2016-06-25T10:48:24.006Z,18.87
2016-06-25T10:49:23.990Z,18.98
2016-06-25T10:50:24.005Z,18.91
2016-06-25T10:51:24.036Z,18.83
2016-06-25T10:52:24.045Z,18.87
2016-06-25T10:53:24.008Z,18.68
2016-06-25T10:54:23.994Z,18.72
2016-06-25T10:55:24.027Z,18.86
2016-06-25T10:56:24.027Z,18.68
2016-06-25T10:57:24.015Z,18.68
2016-06-25T10:58:24.031Z,18.72
2016-06-25T10:59:24.037Z,18.73
2016-06-25T11:00:24.042Z,18.59
2016-06-25T11:01:24.535Z,18.65
2016-06-25T11:02:25.106Z,18.59
2016-06-25T11:03:24.177Z,18.55
2016-06-25T11:04:24.009Z,18.7
2016-06-25T11:05:24.024Z,18.5
2016-06-25T11:06:24.073Z,18.49
2016-06-25T11:07:24.022Z,18.55
2016-06-25T11:08:23.999Z,18.58
2016-06-25T11:09:24.054Z,18.46
2016-06-25T11:10:24.004Z,18.52
2016-06-25T11:11:24.006Z,18.5
2016-06-25T11:12:23.838Z,18.49
2016-06-25T11:13:24.042Z,18.44
2016-06-25T11:14:24.047Z,18.4
2016-06-25T11:15:24.008Z,18.46
2016-06-25T11:16:24.027Z,18.54
2016-06-25T11:17:24.006Z,18.43
2016-06-25T11:18:24.099Z,18.57
2016-06-25T11:19:24.039Z,18.46
2016-06-25T11:20:24.050Z,18.49
2016-06-25T11:21:24.057Z,18.47
2016-06-25T11:22:24.039Z,18.37
2016-06-25T11:23:24.034Z,18.43
2016-06-25T11:24:24.051Z,18.46
2016-06-25T11:25:24.055Z,18.34
2016-06-25T11:26:24.030Z,18.37
2016-06-25T11:27:24.047Z,18.39
2016-06-25T11:28:24.038Z,18.34
2016-06-25T11:29:24.050Z,18.34
2016-06-25T11:30:24.093Z,18.33
2016-06-25T11:31:24.053Z,18.28
2016-06-25T11:32:24.147Z,18.17
2016-06-25T11:33:24.061Z,18.27
2016-06-25T11:34:24.028Z,18.13
2016-06-25T11:35:24.159Z,18.07
2016-06-25T11:36:24.025Z,18.13
2016-06-25T11:37:24.099Z,18.09
2016-06-25T11:38:24.042Z,18.12
2016-06-25T11:39:24.071Z,18.09
2016-06-25T11:40:24.025Z,18.07
2016-06-25T11:41:24.050Z,18.09
2016-06-25T11:42:24.038Z,18.13
2016-06-25T11:43:24.032Z,18.06
2016-06-25T11:44:24.069Z,18.1
2016-06-25T11:45:24.054Z,18.13
2016-06-25T11:46:24.191Z,18.15
2016-06-25T11:47:24.191Z,18.07
2016-06-25T11:48:24.190Z,18.07
2016-06-25T11:49:24.071Z,18.15
2016-06-25T11:50:24.157Z,18.15
2016-06-25T11:51:24.835Z,18.19
2016-06-25T11:52:24.101Z,18.1
2016-06-25T11:53:24.085Z,18.15
2016-06-25T11:54:24.069Z,18.13
2016-06-25T11:55:24.058Z,18.21
2016-06-25T11:56:24.151Z,18.12
2016-06-25T11:57:24.120Z,18.21
2016-06-25T11:58:24.119Z,18.18
2016-06-25T11:59:24.077Z,18.17
2016-06-25T12:00:24.088Z,18.13
2016-06-25T12:01:24.069Z,18.34
2016-06-25T12:02:24.236Z,18.22
2016-06-25T12:03:24.266Z,18.19
2016-06-25T12:04:24.116Z,18.34
2016-06-25T12:05:24.124Z,18.24
2016-06-25T12:06:24.160Z,18.25
2016-06-25T12:07:24.095Z,18.33
2016-06-25T12:08:24.155Z,18.25
2016-06-25T12:09:24.070Z,18.29
2016-06-25T12:10:24.160Z,18.28
2016-06-25T12:11:24.358Z,18.25
2016-06-25T12:12:24.113Z,18.34
2016-06-25T12:13:24.270Z,18.27
2016-06-25T12:14:24.191Z,18.33
2016-06-25T12:15:24.132Z,18.37
2016-06-25T12:16:24.088Z,18.24
2016-06-25T12:17:24.086Z,18.33
2016-06-25T12:18:24.063Z,18.37
2016-06-25T12:19:24.083Z,18.39
2016-06-25T12:20:24.088Z,18.28
2016-06-25T12:21:24.152Z,18.31
2016-06-25T12:22:24.128Z,18.37
2016-06-25T12:23:24.133Z,18.4
2016-06-25T12:24:24.099Z,18.39
2016-06-25T12:25:24.114Z,18.58
2016-06-25T12:26:24.182Z,18.49
2016-06-25T12:27:24.254Z,18.52
2016-06-25T12:28:24.234Z,18.52
2016-06-25T12:29:24.243Z,18.67
2016-06-25T12:30:24.192Z,18.43
2016-06-25T12:31:24.069Z,18.36
2016-06-25T12:32:24.379Z,18.44
2016-06-25T12:33:24.165Z,18.44
2016-06-25T12:34:24.097Z,18.31
2016-06-25T12:35:24.175Z,18.36
2016-06-25T12:36:24.159Z,18.33
2016-06-25T12:37:24.175Z,18.44
2016-06-25T12:38:24.118Z,18.54
2016-06-25T12:39:24.196Z,18.55
2016-06-25T12:40:24.185Z,18.57
2016-06-25T12:41:24.213Z,18.54
2016-06-25T12:42:24.203Z,18.59
2016-06-25T12:43:24.223Z,18.44
2016-06-25T12:44:24.190Z,18.44
2016-06-25T12:45:24.201Z,18.39
2016-06-25T12:46:24.253Z,18.4
2016-06-25T12:47:24.188Z,18.44
2016-06-25T12:48:24.207Z,18.43
2016-06-25T12:49:24.139Z,18.49
2016-06-25T12:50:24.128Z,18.39
2016-06-25T12:51:24.089Z,18.43
2016-06-25T12:52:24.392Z,18.36
2016-06-25T12:53:24.309Z,18.37
2016-06-25T12:54:24.140Z,18.39
2016-06-25T12:55:24.269Z,18.36